Time;durP1;ratioP1;P1;durP2;ratioP2;P2;SDS_P1;SDS_P2;PMS_P1;PMS_P2;Temp;Humidity;BMP_temperature;BMP_pressure;BME280_temperature;BME280_humidity;BME280_pressure;Samples;Min_cycle;Max_cycle;Signal;HPM_P1;HPM_P2
2021/06/26 00:01:11;;;;;;;0.85;0.70;;;27.70;56.20;;;;;;5088933;28;20048;-72
2021/06/26 00:03:38;;;;;;;0.60;0.60;;;27.70;56.20;;;;;;5088638;28;20080;-71
2021/06/26 00:06:08;;;;;;;0.57;0.55;;;27.70;56.20;;;;;;5090178;28;20052;-72
2021/06/26 00:08:35;;;;;;;1.53;0.77;;;27.70;56.30;;;;;;5089648;28;20135;-71
2021/06/26 00:11:05;;;;;;;0.77;0.77;;;27.70;56.30;;;;;;5088621;28;20479;-71
2021/06/26 00:13:34;;;;;;;0.70;0.70;;;27.70;56.30;;;;;;5088726;28;20115;-71
2021/06/26 00:16:05;;;;;;;0.60;0.60;;;27.70;56.30;;;;;;5088616;28;20055;-71
2021/06/26 00:18:33;;;;;;;0.77;0.77;;;27.70;56.30;;;;;;5089087;28;20051;-71
2021/06/26 00:21:00;;;;;;;0.68;0.68;;;27.60;56.20;;;;;;5089824;28;20472;-71
2021/06/26 00:23:31;;;;;;;1.25;0.60;;;27.70;56.30;;;;;;5089602;28;20127;-72
2021/06/26 00:26:16;;;;;;;0.70;0.70;;;27.70;56.30;;;;;;5089475;28;20122;-72
2021/06/26 00:28:45;;;;;;;0.70;0.70;;;27.70;56.30;;;;;;5089349;28;20131;-71
2021/06/26 00:31:14;;;;;;;0.70;0.70;;;27.70;56.20;;;;;;5089612;28;20044;-72
2021/06/26 00:33:42;;;;;;;0.70;0.70;;;27.70;56.20;;;;;;5089150;28;20043;-71
2021/06/26 00:36:11;;;;;;;1.45;0.60;;;27.70;56.20;;;;;;5089713;28;20134;-72
2021/06/26 00:38:40;;;;;;;0.65;0.65;;;27.70;56.40;;;;;;5088659;28;20094;-71
2021/06/26 00:41:10;;;;;;;0.90;0.65;;;27.70;56.20;;;;;;5089656;28;20405;-72
2021/06/26 00:43:38;;;;;;;0.60;0.60;;;27.70;56.20;;;;;;5089128;28;20458;-72
2021/06/26 00:46:06;;;;;;;0.70;0.70;;;27.70;56.10;;;;;;5089455;28;20075;-71
2021/06/26 00:48:34;;;;;;;0.90;0.90;;;27.70;56.70;;;;;;5089074;28;20139;-71
2021/06/26 00:51:01;;;;;;;0.70;0.70;;;27.70;56.20;;;;;;5089692;28;20436;-71
2021/06/26 00:53:28;;;;;;;1.15;0.70;;;27.70;56.20;;;;;;5088997;28;20055;-71
2021/06/26 00:55:56;;;;;;;0.50;0.50;;;27.70;56.20;;;;;;5088706;28;20051;-72
2021/06/26 00:58:24;;;;;;;0.80;0.80;;;27.70;56.20;;;;;;5090175;28;20052;-71
2021/06/26 01:00:52;;;;;;;0.60;0.60;;;27.70;56.20;;;;;;5091048;28;20489;-71
2021/06/26 01:03:20;;;;;;;0.50;0.50;;;27.70;56.20;;;;;;5089202;28;20120;-71
2021/06/26 01:05:48;;;;;;;0.50;0.50;;;27.60;56.10;;;;;;5088645;28;20765;-71
2021/06/26 01:08:16;;;;;;;0.73;0.60;;;27.70;56.20;;;;;;5088328;28;20055;-72
2021/06/26 01:10:43;;;;;;;1.10;0.75;;;27.60;56.10;;;;;;5088949;28;20059;-71
2021/06/26 01:13:10;;;;;;;0.85;0.82;;;27.60;56.20;;;;;;5089049;28;20075;-71
2021/06/26 01:15:37;;;;;;;0.68;0.68;;;27.60;56.20;;;;;;5088555;28;20152;-71
2021/06/26 01:18:05;;;;;;;0.68;0.68;;;27.60;56.20;;;;;;5088897;28;20063;-71
2021/06/26 01:20:32;;;;;;;0.68;0.68;;;27.60;56.20;;;;;;5088668;28;20047;-71
2021/06/26 01:23:00;;;;;;;1.27;0.70;;;27.60;56.20;;;;;;5088744;28;20132;-72
2021/06/26 01:25:29;;;;;;;0.68;0.68;;;27.60;56.20;;;;;;5087165;28;20044;-71
2021/06/26 01:27:58;;;;;;;0.88;0.88;;;27.60;56.20;;;;;;5088999;28;20432;-71
2021/06/26 01:30:27;;;;;;;0.60;0.50;;;27.60;56.70;;;;;;5088177;28;20048;-71
2021/06/26 01:32:55;;;;;;;0.50;0.50;;;27.60;56.10;;;;;;5088828;28;20047;-71
2021/06/26 01:35:22;;;;;;;0.50;0.50;;;27.60;56.10;;;;;;5087983;28;20513;-71
2021/06/26 01:37:51;;;;;;;0.70;0.70;;;27.60;56.10;;;;;;5088163;28;20511;-71
2021/06/26 01:40:22;;;;;;;1.08;0.52;;;27.60;56.00;;;;;;5088119;28;20048;-71
2021/06/26 01:42:50;;;;;;;0.70;0.70;;;27.60;56.00;;;;;;5088381;28;20080;-71
2021/06/26 01:45:18;;;;;;;0.60;0.60;;;27.60;56.00;;;;;;5087669;28;20393;-71
2021/06/26 01:47:50;;;;;;;0.50;0.50;;;27.60;56.00;;;;;;5087129;28;20056;-72
2021/06/26 01:50:24;;;;;;;0.50;0.50;;;27.60;56.00;;;;;;5087779;28;20048;-71
2021/06/26 01:52:51;;;;;;;0.50;0.50;;;27.60;56.00;;;;;;5088348;28;20059;-71
2021/06/26 01:55:19;;;;;;;0.70;0.70;;;27.60;56.00;;;;;;5087750;28;20044;-71
2021/06/26 01:57:48;;;;;;;0.75;0.57;;;27.60;56.00;;;;;;5088715;28;20075;-71
2021/06/26 02:00:16;;;;;;;0.60;0.60;;;27.60;56.00;;;;;;5087937;28;20047;-71
2021/06/26 02:02:44;;;;;;;0.47;0.47;;;27.60;56.10;;;;;;5088267;28;20058;-72
2021/06/26 02:05:12;;;;;;;0.50;0.50;;;27.60;56.10;;;;;;5087644;28;20071;-72
2021/06/26 02:07:39;;;;;;;0.73;0.60;;;27.60;56.10;;;;;;5087880;28;20055;-71
2021/06/26 02:10:07;;;;;;;0.40;0.40;;;27.60;56.10;;;;;;5087400;28;20044;-71
2021/06/26 02:12:34;;;;;;;0.65;0.65;;;27.60;56.10;;;;;;5086562;28;20051;-71
2021/06/26 02:15:07;;;;;;;0.93;0.60;;;27.60;56.10;;;;;;5087354;28;20048;-71
2021/06/26 02:17:34;;;;;;;0.40;0.40;;;27.50;56.00;;;;;;5087692;28;20485;-71
2021/06/26 02:20:03;;;;;;;0.47;0.47;;;27.50;56.00;;;;;;5087350;28;20105;-71
2021/06/26 02:22:30;;;;;;;0.80;0.80;;;27.50;56.10;;;;;;5087862;28;20464;-71
2021/06/26 02:24:59;;;;;;;0.60;0.60;;;27.50;56.00;;;;;;5087563;28;20048;-71
2021/06/26 02:27:26;;;;;;;0.60;0.60;;;27.60;56.10;;;;;;5087747;28;20129;-72
2021/06/26 02:29:53;;;;;;;0.68;0.68;;;27.60;56.10;;;;;;5087688;28;20055;-70
2021/06/26 02:32:20;;;;;;;0.73;0.73;;;27.60;56.00;;;;;;5087430;28;20071;-71
2021/06/26 02:34:48;;;;;;;0.30;0.30;;;27.60;56.00;;;;;;5087265;28;20094;-71
2021/06/26 02:37:15;;;;;;;0.68;0.68;;;27.60;56.00;;;;;;5087791;28;20052;-71
2021/06/26 02:39:42;;;;;;;0.60;0.60;;;27.60;55.90;;;;;;5087721;28;20131;-71
2021/06/26 02:42:10;;;;;;;0.50;0.50;;;27.60;55.90;;;;;;5087378;28;20123;-71
2021/06/26 02:44:37;;;;;;;0.68;0.68;;;27.60;55.90;;;;;;5087373;28;20545;-72
2021/06/26 02:47:05;;;;;;;0.63;0.63;;;27.60;56.00;;;;;;5069873;28;20135;-71
2021/06/26 02:49:32;;;;;;;0.50;0.50;;;27.60;56.50;;;;;;5088494;28;20425;-71
2021/06/26 02:51:59;;;;;;;0.68;0.63;;;27.60;56.00;;;;;;5087352;28;20123;-71
2021/06/26 02:54:26;;;;;;;0.60;0.60;;;27.60;56.00;;;;;;5087119;28;20134;-72
2021/06/26 02:56:53;;;;;;;0.60;0.60;;;27.50;55.90;;;;;;5085791;28;20540;-71
2021/06/26 02:59:21;;;;;;;0.50;0.50;;;27.50;55.90;;;;;;5085844;28;20087;-71
2021/06/26 03:01:48;;;;;;;0.40;0.40;;;27.50;55.90;;;;;;5086807;28;20123;-71
2021/06/26 03:04:15;;;;;;;1.48;0.68;;;27.50;55.90;;;;;;5087285;28;20476;-71
2021/06/26 03:06:42;;;;;;;0.28;0.28;;;27.50;55.90;;;;;;5087278;28;20080;-71
2021/06/26 03:09:09;;;;;;;0.60;0.60;;;27.50;55.90;;;;;;5087040;28;20040;-71
2021/06/26 03:11:37;;;;;;;0.85;0.60;;;27.50;55.90;;;;;;5086897;28;20127;-71
2021/06/26 03:14:04;;;;;;;0.70;0.70;;;27.50;55.80;;;;;;5087386;28;20080;-71
2021/06/26 03:16:31;;;;;;;0.40;0.40;;;27.50;55.80;;;;;;5086814;28;20079;-71
2021/06/26 03:18:58;;;;;;;0.60;0.60;;;27.50;55.80;;;;;;5089112;28;20040;-71
2021/06/26 03:21:26;;;;;;;0.50;0.50;;;27.50;55.80;;;;;;5090363;28;20126;-72
2021/06/26 03:23:53;;;;;;;1.65;0.95;;;27.60;55.90;;;;;;5090889;28;20561;-71
2021/06/26 03:26:20;;;;;;;0.57;0.57;;;27.60;55.80;;;;;;5090542;28;20075;-71
2021/06/26 03:28:47;;;;;;;0.50;0.50;;;27.60;55.70;;;;;;5090617;28;20085;-72
2021/06/26 03:31:14;;;;;;;0.38;0.38;;;27.60;55.70;;;;;;5090306;28;20546;-71
2021/06/26 03:33:41;;;;;;;0.40;0.40;;;27.60;55.70;;;;;;5090999;28;20048;-72
2021/06/26 03:36:09;;;;;;;0.30;0.30;;;27.60;55.60;;;;;;5089885;28;20056;-72
2021/06/26 03:38:36;;;;;;;0.47;0.47;;;27.60;55.60;;;;;;5090426;28;20135;-72
2021/06/26 03:41:03;;;;;;;1.33;0.85;;;27.60;55.60;;;;;;5089285;28;20064;-72
2021/06/26 03:43:30;;;;;;;0.57;0.57;;;27.60;55.50;;;;;;5089985;28;20084;-72
2021/06/26 03:45:57;;;;;;;0.50;0.50;;;27.70;55.60;;;;;;5090117;28;20135;-72
2021/06/26 03:48:24;;;;;;;0.85;0.60;;;27.70;55.50;;;;;;5090512;28;20054;-72
2021/06/26 03:50:52;;;;;;;0.32;0.32;;;27.70;55.50;;;;;;5090695;28;20052;-72
2021/06/26 03:53:19;;;;;;;0.50;0.50;;;27.70;55.40;;;;;;5090066;28;20052;-72
2021/06/26 03:55:51;;;;;;;0.60;0.50;;;27.70;55.40;;;;;;5090428;28;20467;-72
2021/06/26 03:58:20;;;;;;;1.05;0.50;;;27.70;55.30;;;;;;5090253;28;20384;-72
2021/06/26 04:00:48;;;;;;;0.45;0.45;;;27.70;55.30;;;;;;5089976;28;20075;-71
2021/06/26 04:03:16;;;;;;;0.38;0.38;;;27.70;55.20;;;;;;5090152;28;20079;-71
2021/06/26 04:05:44;;;;;;;0.50;0.45;;;27.80;55.30;;;;;;5090051;28;20131;-71
2021/06/26 04:08:11;;;;;;;0.50;0.50;;;27.80;55.20;;;;;;5090071;28;20477;-72
2021/06/26 04:10:39;;;;;;;0.60;0.60;;;27.80;55.10;;;;;;5089870;28;20075;-72
2021/06/26 04:13:07;;;;;;;0.43;0.43;;;27.80;55.10;;;;;;5090222;28;20468;-72
2021/06/26 04:15:35;;;;;;;0.55;0.47;;;27.80;55.00;;;;;;5090278;28;20074;-71
2021/06/26 04:18:03;;;;;;;0.65;0.63;;;27.90;55.00;;;;;;5090055;28;20051;-72
2021/06/26 04:20:31;;;;;;;0.30;0.30;;;27.90;54.90;;;;;;5089841;28;20127;-72
2021/06/26 04:22:59;;;;;;;0.50;0.50;;;27.90;54.90;;;;;;5089668;28;20485;-72
2021/06/26 04:25:29;;;;;;;0.60;0.60;;;27.90;54.70;;;;;;5089887;28;20132;-71
2021/06/26 04:28:05;;;;;;;0.52;0.50;;;27.90;54.60;;;;;;5089780;28;20474;-72
2021/06/26 04:30:32;;;;;;;0.50;0.50;;;28.00;54.80;;;;;;5088888;28;20048;-72
2021/06/26 04:33:01;;;;;;;0.30;0.30;;;28.00;54.50;;;;;;5089550;28;20100;-72
2021/06/26 04:35:28;;;;;;;0.50;0.50;;;28.10;54.40;;;;;;5089682;28;20058;-72
2021/06/26 04:37:56;;;;;;;0.40;0.40;;;28.10;54.40;;;;;;5091422;28;20127;-72
2021/06/26 04:40:24;;;;;;;0.40;0.40;;;28.10;54.20;;;;;;5095013;28;20507;-72
2021/06/26 04:42:52;;;;;;;0.40;0.40;;;28.10;54.20;;;;;;5089637;28;20127;-72
2021/06/26 04:45:19;;;;;;;0.50;0.50;;;28.20;54.10;;;;;;5089628;28;20052;-71
2021/06/26 04:47:47;;;;;;;0.35;0.35;;;28.20;54.00;;;;;;5089104;28;20048;-72
2021/06/26 04:50:14;;;;;;;0.55;0.40;;;28.30;54.00;;;;;;5088070;28;20048;-72
2021/06/26 04:52:43;;;;;;;0.60;0.60;;;28.20;53.90;;;;;;5089240;28;20044;-72
2021/06/26 04:55:11;;;;;;;0.47;0.47;;;28.30;53.80;;;;;;5089039;28;20122;-72
2021/06/26 04:57:38;;;;;;;0.50;0.50;;;28.30;53.80;;;;;;5088884;28;20094;-71
2021/06/26 05:00:07;;;;;;;0.43;0.40;;;28.40;53.80;;;;;;5089102;28;20131;-72
2021/06/26 05:02:34;;;;;;;0.63;0.63;;;28.40;53.60;;;;;;5088876;28;20892;-71
2021/06/26 05:05:01;;;;;;;0.40;0.40;;;28.40;53.60;;;;;;5089171;28;20070;-72
2021/06/26 05:07:29;;;;;;;1.33;0.50;;;28.40;53.50;;;;;;5089131;28;20076;-71
2021/06/26 05:09:56;;;;;;;0.50;0.50;;;28.40;53.50;;;;;;5089320;28;20079;-72
2021/06/26 05:12:23;;;;;;;0.90;0.90;;;28.40;53.50;;;;;;5088759;28;20131;-71
2021/06/26 05:14:50;;;;;;;0.77;0.75;;;28.30;53.60;;;;;;5088585;28;20044;-72
2021/06/26 05:17:17;;;;;;;0.50;0.50;;;28.20;53.80;;;;;;5089201;28;20082;-72
2021/06/26 05:19:45;;;;;;;0.50;0.50;;;28.10;54.00;;;;;;5088340;28;20052;-72
2021/06/26 05:22:13;;;;;;;0.50;0.50;;;27.90;54.40;;;;;;5088717;28;20097;-72
2021/06/26 05:24:41;;;;;;;0.35;0.35;;;27.70;54.90;;;;;;5088501;28;20052;-72
2021/06/26 05:27:09;;;;;;;0.55;0.55;;;27.40;55.60;;;;;;5088661;28;20338;-72
2021/06/26 05:29:41;;;;;;;0.43;0.43;;;27.10;56.30;;;;;;5088609;28;20423;-72
2021/06/26 05:32:09;;;;;;;0.40;0.40;;;26.90;56.70;;;;;;5087639;28;20048;-72
2021/06/26 05:34:40;;;;;;;0.60;0.60;;;26.70;56.80;;;;;;5088105;28;20526;-72
2021/06/26 05:37:07;;;;;;;0.50;0.45;;;26.60;56.90;;;;;;5088225;28;20044;-71
2021/06/26 05:39:34;;;;;;;0.68;0.68;;;26.40;56.80;;;;;;5088313;28;20048;-72
2021/06/26 05:42:02;;;;;;;0.40;0.40;;;26.30;56.70;;;;;;5087997;28;20110;-71
2021/06/26 05:44:29;;;;;;;0.55;0.55;;;26.20;56.70;;;;;;5087158;28;20051;-72
2021/06/26 05:46:56;;;;;;;0.35;0.35;;;26.10;56.60;;;;;;5088093;28;20106;-71
2021/06/26 05:49:24;;;;;;;0.40;0.40;;;26.00;56.60;;;;;;5088062;28;20136;-71
2021/06/26 05:51:51;;;;;;;0.45;0.45;;;25.90;56.60;;;;;;5088531;28;20401;-71
2021/06/26 05:54:18;;;;;;;0.65;0.65;;;25.80;56.70;;;;;;5086466;28;20055;-72
2021/06/26 05:56:45;;;;;;;0.35;0.35;;;25.70;56.60;;;;;;5087767;28;20079;-71
2021/06/26 05:59:13;;;;;;;0.47;0.47;;;25.60;56.80;;;;;;5087415;28;20131;-72
2021/06/26 06:01:40;;;;;;;0.40;0.40;;;25.50;56.70;;;;;;5087348;28;20563;-71
2021/06/26 06:04:08;;;;;;;0.50;0.50;;;25.40;57.00;;;;;;5087369;28;20493;-71
2021/06/26 06:06:36;;;;;;;0.30;0.30;;;25.40;57.30;;;;;;5087692;28;20443;-71
2021/06/26 06:09:05;;;;;;;0.30;0.30;;;25.30;57.30;;;;;;5086878;28;20147;-71
2021/06/26 06:11:33;;;;;;;0.35;0.35;;;25.30;57.40;;;;;;5087988;28;20122;-72
2021/06/26 06:14:01;;;;;;;0.50;0.50;;;25.20;57.50;;;;;;5086321;28;20084;-72
2021/06/26 06:16:28;;;;;;;0.50;0.50;;;25.10;57.70;;;;;;5087803;28;20050;-72
2021/06/26 06:18:55;;;;;;;0.50;0.50;;;25.10;57.90;;;;;;5087887;28;20485;-72
2021/06/26 06:21:23;;;;;;;0.30;0.30;;;25.10;57.90;;;;;;5086619;28;20133;-71
2021/06/26 06:23:50;;;;;;;0.40;0.40;;;25.00;58.00;;;;;;5087774;28;20130;-71
2021/06/26 06:26:17;;;;;;;0.30;0.30;;;25.00;58.10;;;;;;5087701;28;20058;-72
2021/06/26 06:28:44;;;;;;;0.40;0.40;;;25.00;58.10;;;;;;5092978;28;20770;-72
2021/06/26 06:31:12;;;;;;;0.50;0.50;;;25.00;58.30;;;;;;5091303;28;20055;-72
2021/06/26 06:33:40;;;;;;;0.75;0.75;;;24.90;58.30;;;;;;5087388;28;20130;-71
2021/06/26 06:36:08;;;;;;;0.30;0.30;;;24.90;58.40;;;;;;5087152;28;20055;-71
2021/06/26 06:38:36;;;;;;;0.60;0.60;;;24.90;58.50;;;;;;5086899;28;20139;-71
2021/06/26 06:41:03;;;;;;;0.43;0.40;;;24.90;58.60;;;;;;5086680;28;20468;-71
2021/06/26 06:43:30;;;;;;;0.40;0.40;;;24.90;58.70;;;;;;5086356;28;20408;-71
2021/06/26 06:45:57;;;;;;;0.52;0.52;;;24.80;58.80;;;;;;5086746;28;20557;-71
2021/06/26 06:48:25;;;;;;;0.60;0.60;;;24.80;58.90;;;;;;5087018;28;20051;-71
2021/06/26 06:50:52;;;;;;;0.40;0.40;;;24.70;59.00;;;;;;5086893;28;20080;-71
2021/06/26 06:53:19;;;;;;;0.52;0.52;;;24.70;59.20;;;;;;5087864;28;20580;-71
2021/06/26 06:55:51;;;;;;;0.52;0.52;;;24.70;59.30;;;;;;5090991;28;20492;-71
2021/06/26 06:58:21;;;;;;;2.20;0.60;;;24.70;59.40;;;;;;5091000;28;20048;-71
2021/06/26 07:00:48;;;;;;;1.00;1.00;;;24.70;59.50;;;;;;5091317;28;20044;-71
2021/06/26 07:03:15;;;;;;;0.73;0.70;;;24.60;59.60;;;;;;5090598;28;20573;-71
2021/06/26 07:05:42;;;;;;;0.90;0.68;;;24.60;59.70;;;;;;5090922;28;20493;-71
2021/06/26 07:08:10;;;;;;;0.75;0.75;;;24.60;59.80;;;;;;5090642;28;20075;-71
2021/06/26 07:10:37;;;;;;;0.70;0.70;;;24.60;59.80;;;;;;5089911;28;20121;-71
2021/06/26 07:13:04;;;;;;;1.05;0.93;;;24.60;59.80;;;;;;5091037;28;20106;-71
2021/06/26 07:15:32;;;;;;;0.93;0.93;;;24.60;59.90;;;;;;5090736;28;20051;-71
2021/06/26 07:18:00;;;;;;;1.20;1.20;;;24.50;60.40;;;;;;5090726;28;20051;-71
2021/06/26 07:20:27;;;;;;;0.90;0.90;;;24.60;59.90;;;;;;5090787;28;20071;-71
2021/06/26 07:22:55;;;;;;;1.10;1.00;;;24.50;59.90;;;;;;5090639;28;20083;-71
2021/06/26 07:25:23;;;;;;;0.90;0.90;;;24.50;59.90;;;;;;5088943;28;20134;-71
2021/06/26 07:27:50;;;;;;;0.98;0.98;;;24.60;60.00;;;;;;5090635;28;20130;-71
2021/06/26 07:30:18;;;;;;;0.75;0.75;;;24.60;60.00;;;;;;5090671;28;20196;-71
2021/06/26 07:32:46;;;;;;;3.33;1.35;;;24.60;60.10;;;;;;5090608;28;20083;-71
2021/06/26 07:35:15;;;;;;;1.70;1.00;;;24.60;60.00;;;;;;5090125;28;20047;-71
2021/06/26 07:37:43;;;;;;;1.10;1.05;;;24.60;60.00;;;;;;5090404;28;20706;-70
2021/06/26 07:40:13;;;;;;;2.47;1.02;;;24.50;60.00;;;;;;5090086;28;20048;-71
2021/06/26 07:42:41;;;;;;;1.23;1.13;;;24.50;60.10;;;;;;5090663;28;20405;-72
2021/06/26 07:45:09;;;;;;;1.45;0.88;;;24.50;60.10;;;;;;5090477;28;20126;-71
2021/06/26 07:47:36;;;;;;;0.82;0.82;;;24.50;60.20;;;;;;5089442;28;20128;-71
2021/06/26 07:50:05;;;;;;;1.27;1.17;;;24.50;60.30;;;;;;5089743;28;20094;-71
2021/06/26 07:52:33;;;;;;;0.80;0.80;;;24.50;60.30;;;;;;5090463;28;20130;-71
2021/06/26 07:55:00;;;;;;;0.90;0.90;;;24.50;60.30;;;;;;5089868;28;20098;-71
2021/06/26 07:57:28;;;;;;;0.90;0.90;;;24.50;60.30;;;;;;5090475;28;20127;-71
2021/06/26 07:59:55;;;;;;;1.08;1.08;;;24.50;60.30;;;;;;5088794;28;20597;-71
2021/06/26 08:02:22;;;;;;;1.02;0.90;;;24.50;60.30;;;;;;5089989;28;20083;-71
2021/06/26 08:04:49;;;;;;;1.52;1.05;;;24.50;60.30;;;;;;5089788;28;20044;-71
2021/06/26 08:07:19;;;;;;;1.25;1.25;;;24.50;60.30;;;;;;5090482;28;20048;-71
2021/06/26 08:09:46;;;;;;;1.15;1.15;;;24.50;60.30;;;;;;5089289;28;20511;-71
2021/06/26 08:12:16;;;;;;;0.88;0.88;;;24.50;60.30;;;;;;5089871;28;20044;-71
2021/06/26 08:14:43;;;;;;;1.10;1.10;;;24.50;60.30;;;;;;5090810;28;20149;-71
2021/06/26 08:17:11;;;;;;;1.40;1.30;;;24.50;60.40;;;;;;5092760;28;20238;-72
2021/06/26 08:19:39;;;;;;;1.00;0.93;;;24.50;60.40;;;;;;5094937;28;20078;-72
2021/06/26 08:22:06;;;;;;;0.93;0.93;;;24.50;60.40;;;;;;5089634;28;20481;-71
2021/06/26 08:24:34;;;;;;;0.88;0.88;;;24.50;60.40;;;;;;5089820;28;20056;-71
2021/06/26 08:27:03;;;;;;;0.57;0.57;;;24.60;60.40;;;;;;5089374;28;20044;-71
2021/06/26 08:29:30;;;;;;;1.00;1.00;;;24.50;60.20;;;;;;5088729;28;20441;-71
2021/06/26 08:31:57;;;;;;;1.48;1.35;;;24.60;60.30;;;;;;5089458;28;20048;-71
2021/06/26 08:34:25;;;;;;;1.10;1.10;;;24.60;60.30;;;;;;5089638;28;20105;-71
2021/06/26 08:36:52;;;;;;;1.00;1.00;;;24.60;60.30;;;;;;5089109;28;20127;-72
2021/06/26 08:39:22;;;;;;;0.90;0.90;;;24.60;60.30;;;;;;5089496;28;20051;-71
2021/06/26 08:41:49;;;;;;;1.10;1.10;;;24.60;60.40;;;;;;5087903;28;20127;-71
2021/06/26 08:44:19;;;;;;;0.93;0.93;;;24.50;60.30;;;;;;5089258;28;20238;-71
2021/06/26 08:46:52;;;;;;;0.90;0.90;;;24.60;60.50;;;;;;5089057;28;20095;-71
2021/06/26 08:49:19;;;;;;;1.05;1.05;;;24.50;60.50;;;;;;5089238;28;20128;-71
2021/06/26 08:51:47;;;;;;;1.00;1.00;;;24.50;60.50;;;;;;5088691;28;20051;-71
2021/06/26 08:54:19;;;;;;;0.73;0.73;;;24.50;60.60;;;;;;5089043;28;20504;-72
2021/06/26 08:56:48;;;;;;;0.90;0.90;;;24.50;60.60;;;;;;5088601;28;20131;-71
2021/06/26 08:59:16;;;;;;;1.20;1.20;;;24.50;60.70;;;;;;5088784;28;20136;-71
2021/06/26 09:01:45;;;;;;;1.20;1.20;;;24.50;60.80;;;;;;5088813;28;20135;-72
2021/06/26 09:04:15;;;;;;;1.10;1.10;;;24.50;60.70;;;;;;5088711;28;20047;-71
2021/06/26 09:06:46;;;;;;;;;;;24.50;60.70;;;;;;5088459;28;20075;-71
2021/06/26 09:09:14;;;;;;;2.05;1.30;;;24.50;60.80;;;;;;5089399;28;19970;-71
2021/06/26 09:11:42;;;;;;;1.27;1.05;;;24.50;60.70;;;;;;5088948;28;20066;-71
2021/06/26 09:14:19;;;;;;;1.30;1.08;;;24.50;60.70;;;;;;5088932;28;20074;-71
2021/06/26 09:16:51;;;;;;;0.98;0.98;;;24.50;60.60;;;;;;5087866;28;20530;-71
2021/06/26 09:19:20;;;;;;;1.00;1.00;;;24.40;60.60;;;;;;5088648;28;20087;-71
2021/06/26 09:22:06;;;;;;;1.10;1.10;;;24.40;60.60;;;;;;5088001;28;20489;-71
2021/06/26 09:24:44;;;;;;;1.45;1.38;;;24.50;60.70;;;;;;5088723;28;20044;-71
2021/06/26 09:27:14;;;;;;;1.20;1.20;;;24.50;60.60;;;;;;5087718;28;20135;-71
2021/06/26 09:29:54;;;;;;;2.45;1.02;;;24.50;60.40;;;;;;5088990;28;20047;-71
2021/06/26 09:32:24;;;;;;;1.08;1.00;;;24.50;60.30;;;;;;5086813;28;20082;-71
2021/06/26 09:34:53;;;;;;;1.23;1.23;;;24.50;60.20;;;;;;5087804;28;20075;-71
2021/06/26 09:37:25;;;;;;;1.35;1.25;;;24.50;60.10;;;;;;5087841;28;20127;-71
2021/06/26 09:39:56;;;;;;;2.35;1.15;;;24.50;60.00;;;;;;5088353;28;20048;-71
2021/06/26 09:42:33;;;;;;;1.40;1.30;;;24.50;60.00;;;;;;5087610;28;20054;-72
2021/06/26 09:45:09;;;;;;;2.10;1.50;;;24.50;60.00;;;;;;5087906;28;20496;-71
2021/06/26 09:47:43;;;;;;;1.42;1.38;;;24.50;60.00;;;;;;5088105;28;20047;-71
2021/06/26 09:50:26;;;;;;;1.30;1.30;;;24.50;59.90;;;;;;5088607;28;20055;-71
2021/06/26 09:53:05;;;;;;;1.10;1.00;;;24.50;59.80;;;;;;5087727;28;20076;-71
2021/06/26 09:55:39;;;;;;;1.00;1.00;;;24.50;60.00;;;;;;5088319;28;20043;-71
2021/06/26 09:58:12;;;;;;;1.70;1.30;;;24.50;60.00;;;;;;5088007;28;20116;-71
2021/06/26 10:00:41;;;;;;;0.90;0.90;;;24.50;59.90;;;;;;5088419;28;20052;-72
2021/06/26 10:03:09;;;;;;;1.17;1.17;;;24.50;59.80;;;;;;5087806;28;20143;-72
2021/06/26 10:05:38;;;;;;;0.90;0.90;;;24.50;59.80;;;;;;5089659;28;20048;-72
2021/06/26 10:08:06;;;;;;;1.15;1.02;;;24.60;59.80;;;;;;5093488;28;20043;-72
2021/06/26 10:10:34;;;;;;;1.40;1.35;;;24.60;59.70;;;;;;5087726;28;20048;-72
2021/06/26 10:13:02;;;;;;;1.30;1.20;;;24.60;59.60;;;;;;5087966;28;20109;-72
2021/06/26 10:15:33;;;;;;;1.00;1.00;;;24.60;59.60;;;;;;5088245;28;20075;-71
2021/06/26 10:18:01;;;;;;;0.95;0.95;;;24.60;59.60;;;;;;5087291;28;20051;-71
2021/06/26 10:20:29;;;;;;;0.85;0.85;;;24.60;59.50;;;;;;5087704;28;20059;-71
2021/06/26 10:23:00;;;;;;;1.00;1.00;;;24.60;59.50;;;;;;5087251;28;20044;-71
2021/06/26 10:25:39;;;;;;;1.10;1.08;;;24.60;59.50;;;;;;5087703;28;20075;-72
2021/06/26 10:28:16;;;;;;;0.80;0.80;;;24.70;59.50;;;;;;5086726;28;20074;-71
2021/06/26 10:31:01;;;;;;;1.08;1.08;;;24.70;59.50;;;;;;5087807;28;20079;-71
2021/06/26 10:33:30;;;;;;;1.02;1.02;;;24.70;59.40;;;;;;5087379;28;20449;-72
2021/06/26 10:36:00;;;;;;;1.10;1.10;;;24.70;59.40;;;;;;5086426;28;20877;-71
2021/06/26 10:38:41;;;;;;;1.05;1.05;;;24.70;59.30;;;;;;5087154;28;20389;-71
2021/06/26 10:41:20;;;;;;;1.00;1.00;;;24.70;59.40;;;;;;5087650;28;20048;-71
2021/06/26 10:43:55;;;;;;;1.08;1.00;;;24.70;59.30;;;;;;5087423;28;20396;-71
2021/06/26 10:46:23;;;;;;;0.90;0.90;;;24.70;59.40;;;;;;5087496;28;20112;-72
2021/06/26 10:49:08;;;;;;;1.30;1.30;;;24.70;59.40;;;;;;5087060;28;20075;-72
2021/06/26 10:51:37;;;;;;;0.85;0.85;;;24.70;59.50;;;;;;5087403;28;20075;-71
2021/06/26 10:54:14;;;;;;;1.00;1.00;;;24.60;59.40;;;;;;5087399;28;20767;-71
2021/06/26 10:56:43;;;;;;;1.10;1.10;;;24.60;59.40;;;;;;5087367;28;20386;-71
2021/06/26 10:59:13;;;;;;;1.00;1.00;;;24.60;59.40;;;;;;5087300;28;20123;-71
2021/06/26 11:01:51;;;;;;;1.00;1.00;;;24.60;59.30;;;;;;5087650;28;20476;-71
2021/06/26 11:04:19;;;;;;;1.40;1.08;;;24.60;59.30;;;;;;5086948;28;20055;-71
2021/06/26 11:06:52;;;;;;;1.10;1.10;;;24.60;59.20;;;;;;5087163;28;20097;-71
2021/06/26 11:09:19;;;;;;;0.98;0.98;;;24.60;59.10;;;;;;5087295;28;20048;-71
2021/06/26 11:11:48;;;;;;;0.73;0.73;;;24.60;59.10;;;;;;5087470;28;20048;-71
2021/06/26 11:14:28;;;;;;;0.90;0.90;;;24.70;59.10;;;;;;5087215;28;20151;-71
2021/06/26 11:16:58;;;;;;;1.00;0.90;;;24.70;59.00;;;;;;5087193;28;20048;-71
2021/06/26 11:19:29;;;;;;;;;;;24.70;59.00;;;;;;5087554;28;20040;-71
2021/06/26 11:21:58;;;;;;;0.85;0.85;;;24.70;59.00;;;;;;5087035;28;19920;-72
2021/06/26 11:24:40;;;;;;;0.90;0.90;;;24.70;58.80;;;;;;5086869;28;20090;-71
2021/06/26 11:27:14;;;;;;;1.00;1.00;;;24.70;58.70;;;;;;5087481;28;20460;-71
2021/06/26 11:29:44;;;;;;;1.58;0.93;;;24.70;58.60;;;;;;5086830;28;20079;-72
2021/06/26 11:32:21;;;;;;;1.35;0.93;;;24.70;58.50;;;;;;5086176;28;20132;-72
2021/06/26 11:34:53;;;;;;;0.88;0.88;;;24.80;58.50;;;;;;5086428;28;20105;-72
2021/06/26 11:37:22;;;;;;;0.80;0.80;;;24.80;58.40;;;;;;5086913;28;20040;-71
2021/06/26 11:39:49;;;;;;;0.82;0.82;;;24.80;58.40;;;;;;5087588;28;20468;-71
2021/06/26 11:42:20;;;;;;;0.73;0.73;;;24.80;58.40;;;;;;5091151;28;20079;-71
2021/06/26 11:44:47;;;;;;;0.57;0.57;;;24.80;58.40;;;;;;5090731;28;20040;-71
2021/06/26 11:47:16;;;;;;;0.82;0.82;;;24.80;58.30;;;;;;5090965;28;20131;-72
2021/06/26 11:49:46;;;;;;;0.95;0.90;;;24.80;58.30;;;;;;5090204;28;20044;-72
2021/06/26 11:52:15;;;;;;;0.70;0.70;;;24.80;58.20;;;;;;5090755;28;20138;-71
2021/06/26 11:54:43;;;;;;;0.90;0.90;;;24.90;58.30;;;;;;5095199;28;20040;-71
2021/06/26 11:57:12;;;;;;;0.80;0.80;;;24.80;58.20;;;;;;5094822;28;20066;-71
2021/06/26 11:59:45;;;;;;;0.80;0.80;;;24.80;58.30;;;;;;5090101;28;20493;-71
2021/06/26 12:02:13;;;;;;;1.08;0.73;;;24.80;58.30;;;;;;5090503;28;20072;-71
2021/06/26 12:04:41;;;;;;;0.70;0.70;;;24.80;58.30;;;;;;5090107;28;20075;-71
2021/06/26 12:07:10;;;;;;;0.80;0.80;;;24.80;58.40;;;;;;5089885;28;20044;-71
2021/06/26 12:09:42;;;;;;;0.65;0.65;;;24.80;58.40;;;;;;5089516;28;20052;-71
2021/06/26 12:12:10;;;;;;;1.00;1.00;;;24.80;58.40;;;;;;5089920;28;20135;-71
2021/06/26 12:14:39;;;;;;;0.70;0.70;;;24.80;58.40;;;;;;5090288;28;20135;-71
2021/06/26 12:17:11;;;;;;;0.77;0.77;;;24.80;58.40;;;;;;5090063;28;20127;-71
2021/06/26 12:19:39;;;;;;;0.85;0.80;;;24.80;58.40;;;;;;5089598;28;20164;-71
2021/06/26 12:22:07;;;;;;;0.65;0.63;;;24.80;58.50;;;;;;5090158;28;20074;-71
2021/06/26 12:24:39;;;;;;;0.75;0.75;;;24.80;58.50;;;;;;5089964;28;20131;-72
2021/06/26 12:27:18;;;;;;;1.88;0.75;;;24.80;58.50;;;;;;5089463;28;20131;-71
2021/06/26 12:29:57;;;;;;;0.60;0.60;;;24.80;58.40;;;;;;5089646;28;20130;-71
2021/06/26 12:32:27;;;;;;;0.60;0.60;;;24.80;58.40;;;;;;5089985;28;20109;-72
2021/06/26 12:34:56;;;;;;;0.63;0.63;;;24.90;58.30;;;;;;5089362;28;20507;-71
2021/06/26 12:37:33;;;;;;;0.70;0.70;;;24.90;58.30;;;;;;5071568;28;20143;-71
2021/06/26 12:40:06;;;;;;;0.90;0.90;;;24.90;58.30;;;;;;5088167;28;20386;-71
2021/06/26 12:42:40;;;;;;;0.70;0.70;;;24.90;58.30;;;;;;5082870;28;20091;-71
2021/06/26 12:45:08;;;;;;;0.60;0.60;;;24.90;58.30;;;;;;5069153;28;20098;-70
2021/06/26 12:47:35;;;;;;;0.98;0.98;;;24.90;58.50;;;;;;5072527;28;20054;-68
2021/06/26 12:50:09;;;;;;;0.82;0.82;;;24.90;59.10;;;;;;5069690;28;20067;-66
2021/06/26 12:52:38;;;;;;;0.60;0.60;;;24.90;59.10;;;;;;5077575;28;20052;-68
2021/06/26 12:55:05;;;;;;;0.88;0.88;;;24.90;59.20;;;;;;5083749;28;20480;-69
